createdAt,value
2018-06-02T00:01:32.995Z,15.06
2018-06-02T00:04:01.216Z,15.04
2018-06-02T00:06:29.451Z,14.99
2018-06-02T00:08:57.699Z,15.11
2018-06-02T00:11:25.936Z,15.07
2018-06-02T00:13:54.167Z,15.05
2018-06-02T00:16:22.402Z,15.14
2018-06-02T00:18:50.635Z,15.16
2018-06-02T00:21:18.863Z,15.09
2018-06-02T00:23:47.897Z,14.95
2018-06-02T00:26:16.123Z,14.87
2018-06-02T00:28:44.358Z,14.82
2018-06-02T00:31:12.631Z,14.83
2018-06-02T00:33:40.866Z,14.69
2018-06-02T00:36:09.870Z,14.83
2018-06-02T00:38:38.116Z,14.94
2018-06-02T00:41:06.343Z,15.01
2018-06-02T00:43:34.595Z,15.02
2018-06-02T00:46:02.831Z,14.98
2018-06-02T00:48:31.390Z,14.83
2018-06-02T00:50:59.679Z,14.83
2018-06-02T00:53:27.918Z,14.90
2018-06-02T00:55:56.147Z,14.90
2018-06-02T00:58:24.715Z,14.86
2018-06-02T01:00:53.248Z,14.79
2018-06-02T01:03:21.662Z,14.84
2018-06-02T01:05:49.911Z,14.77
2018-06-02T01:08:18.144Z,14.76
2018-06-02T01:10:46.371Z,14.69
2018-06-02T01:13:14.643Z,14.57
2018-06-02T01:15:43.115Z,14.64
2018-06-02T01:18:11.636Z,14.64
2018-06-02T01:20:40.103Z,14.51
2018-06-02T01:23:08.568Z,14.48
2018-06-02T01:25:36.919Z,14.44
2018-06-02T01:28:05.968Z,14.42
2018-06-02T01:30:34.191Z,14.43
2018-06-02T01:33:02.423Z,14.47
2018-06-02T01:35:30.700Z,14.45
2018-06-02T01:37:59.103Z,14.29
2018-06-02T01:40:27.498Z,14.35
2018-06-02T01:42:55.743Z,14.35
2018-06-02T01:45:24.007Z,14.28
2018-06-02T01:47:52.274Z,14.21
2018-06-02T01:50:20.503Z,14.06
2018-06-02T01:52:48.728Z,13.98
2018-06-02T01:55:16.999Z,14.04
2018-06-02T01:57:45.355Z,14.08
2018-06-02T02:00:14.539Z,14.11
2018-06-02T02:02:43.014Z,14.07
2018-06-02T02:05:11.255Z,13.95
2018-06-02T02:07:39.482Z,13.81
2018-06-02T02:10:08.503Z,13.83
2018-06-02T02:12:36.796Z,13.89
2018-06-02T02:15:05.304Z,13.93
2018-06-02T02:17:33.783Z,13.86
2018-06-02T02:20:02.994Z,13.83
2018-06-02T02:22:31.250Z,13.78
2018-06-02T02:24:59.491Z,13.77
2018-06-02T02:27:27.759Z,13.75
2018-06-02T02:29:56.069Z,13.89
2018-06-02T02:32:24.294Z,13.84
2018-06-02T02:34:53.299Z,13.78
2018-06-02T02:37:21.531Z,13.84
2018-06-02T02:39:49.760Z,13.83
2018-06-02T02:42:18.196Z,13.82
2018-06-02T02:44:46.593Z,13.72
2018-06-02T02:47:14.917Z,13.62
2018-06-02T02:49:43.489Z,13.60
2018-06-02T02:52:11.927Z,13.57
2018-06-02T02:54:41.206Z,13.56
2018-06-02T02:57:09.528Z,13.57
2018-06-02T02:59:38.523Z,13.62
2018-06-02T03:02:06.759Z,13.62
2018-06-02T03:04:35.132Z,13.58
2018-06-02T03:07:03.486Z,13.51
2018-06-02T03:09:31.722Z,13.37
2018-06-02T03:12:00.763Z,13.35
2018-06-02T03:14:28.989Z,13.50
2018-06-02T03:16:57.240Z,13.50
2018-06-02T03:19:25.781Z,13.41
2018-06-02T03:21:54.224Z,13.32
2018-06-02T03:24:22.617Z,13.42
2018-06-02T03:26:51.647Z,13.36
2018-06-02T03:29:20.066Z,13.44
2018-06-02T03:31:48.463Z,13.44
2018-06-02T03:34:17.520Z,13.41
2018-06-02T03:36:45.743Z,13.35
2018-06-02T03:39:14.110Z,13.40
2018-06-02T03:41:43.452Z,13.60
2018-06-02T03:44:11.864Z,13.51
2018-06-02T03:46:40.322Z,13.49
2018-06-02T03:49:08.588Z,13.48
2018-06-02T03:51:36.823Z,13.54
2018-06-02T03:54:05.137Z,13.59
2018-06-02T03:56:33.375Z,13.63
2018-06-02T03:59:01.828Z,13.62
2018-06-02T04:01:30.149Z,13.59
2018-06-02T04:03:58.610Z,13.75
2018-06-02T04:06:26.985Z,14.06
2018-06-02T04:08:55.406Z,14.70
2018-06-02T04:11:23.870Z,15.34
2018-06-02T04:13:52.112Z,16.47
2018-06-02T04:16:20.680Z,16.46
2018-06-02T04:18:49.187Z,17.13
2018-06-02T04:21:18.654Z,17.16
2018-06-02T04:23:46.891Z,17.23
2018-06-02T04:26:15.159Z,17.46
2018-06-02T04:28:43.386Z,17.64
2018-06-02T04:31:11.809Z,17.82
2018-06-02T04:33:40.060Z,18.01
2018-06-02T04:36:08.474Z,18.00
2018-06-02T04:38:36.911Z,18.10
2018-06-02T04:41:06.218Z,17.97
2018-06-02T04:43:34.607Z,17.78
2018-06-02T04:46:03.772Z,17.93
2018-06-02T04:48:32.040Z,18.44
2018-06-02T04:51:00.262Z,19.28
2018-06-02T04:53:28.610Z,19.68
2018-06-02T04:55:56.864Z,20.06
2018-06-02T04:58:25.176Z,20.64
2018-06-02T05:00:53.492Z,20.93
2018-06-02T05:03:21.751Z,21.78
2018-06-02T05:05:49.975Z,21.96
2018-06-02T05:08:18.312Z,21.43
2018-06-02T05:10:46.558Z,20.53
2018-06-02T05:13:14.779Z,20.75
2018-06-02T05:15:43.767Z,21.26
2018-06-02T05:18:12.107Z,21.86
2018-06-02T05:20:40.533Z,22.55
2018-06-02T05:23:08.935Z,22.35
2018-06-02T05:25:37.185Z,21.79
2018-06-02T05:28:06.379Z,21.88
2018-06-02T05:30:34.712Z,22.15
2018-06-02T05:35:52.043Z,23.24
2018-06-02T05:38:20.266Z,23.45
2018-06-02T05:40:48.488Z,23.22
2018-06-02T05:43:17.025Z,23.09
2018-06-02T05:45:45.280Z,22.87
2018-06-02T05:48:13.506Z,22.79
2018-06-02T05:50:41.731Z,22.73
2018-06-02T05:53:09.967Z,22.46
2018-06-02T05:55:38.227Z,22.68
2018-06-02T05:58:07.219Z,22.49
2018-06-02T06:00:35.447Z,22.32
2018-06-02T06:03:03.703Z,22.75
2018-06-02T06:05:31.919Z,23.91
2018-06-02T06:08:00.134Z,23.77
2018-06-02T06:10:28.383Z,23.02
2018-06-02T06:12:56.611Z,22.37
2018-06-02T06:15:25.603Z,22.52
2018-06-02T06:17:53.836Z,22.71
2018-06-02T06:20:22.068Z,23.14
2018-06-02T06:22:50.394Z,23.27
2018-06-02T06:25:18.876Z,24.21
2018-06-02T06:27:47.275Z,25.71
2018-06-02T06:30:15.603Z,25.64
2018-06-02T06:32:43.865Z,26.72
2018-06-02T06:35:12.586Z,27.82
2018-06-02T06:37:40.920Z,27.48
2018-06-02T06:40:09.361Z,27.87
2018-06-02T06:42:37.662Z,27.91
2018-06-02T06:45:05.878Z,26.23
2018-06-02T06:47:34.135Z,25.88
2018-06-02T06:50:02.525Z,26.81
2018-06-02T06:52:30.751Z,26.33
2018-06-02T06:54:59.122Z,25.86
2018-06-02T06:57:28.114Z,24.98
2018-06-02T06:59:56.336Z,24.97
2018-06-02T07:02:24.591Z,24.91
2018-06-02T07:04:53.032Z,23.88
2018-06-02T07:07:22.217Z,23.46
2018-06-02T07:09:50.461Z,23.50
2018-06-02T07:12:18.679Z,23.34
2018-06-02T07:14:47.095Z,23.08
2018-06-02T07:17:15.636Z,22.52
2018-06-02T07:19:44.812Z,22.64
2018-06-02T07:22:13.042Z,22.90
2018-06-02T07:24:41.559Z,22.57
2018-06-02T07:27:09.953Z,22.73
2018-06-02T07:29:38.304Z,22.67
2018-06-02T07:32:06.560Z,22.88
2018-06-02T07:34:35.540Z,22.46
2018-06-02T07:37:03.770Z,22.49
2018-06-02T07:39:32.008Z,24.83
2018-06-02T07:42:00.218Z,27.99
2018-06-02T07:44:28.439Z,30.68
2018-06-02T07:46:56.758Z,32.40
2018-06-02T07:49:24.987Z,32.32
2018-06-02T07:51:53.211Z,32.65
2018-06-02T07:54:21.461Z,32.63
2018-06-02T07:56:50.440Z,32.49
2018-06-02T07:59:18.661Z,33.50
2018-06-02T08:01:46.915Z,30.76
2018-06-02T08:04:15.147Z,31.59
2018-06-02T08:06:43.366Z,30.06
2018-06-02T08:09:11.615Z,32.76
2018-06-02T08:11:39.834Z,31.30
2018-06-02T08:14:08.052Z,30.80
2018-06-02T08:16:36.311Z,28.89
2018-06-02T08:19:04.542Z,28.30
2018-06-02T08:21:32.750Z,27.24
2018-06-02T08:24:00.987Z,27.33
2018-06-02T08:26:29.202Z,30.19
2018-06-02T08:28:57.430Z,32.41
2018-06-02T08:31:25.678Z,33.61
2018-06-02T08:33:53.903Z,33.31
2018-06-02T08:36:22.123Z,32.04
2018-06-02T08:38:50.386Z,29.21
2018-06-02T08:41:18.575Z,30.52
2018-06-02T08:43:46.795Z,33.96
2018-06-02T08:46:15.041Z,34.72
2018-06-02T08:48:43.264Z,33.05
2018-06-02T08:51:11.483Z,32.26
2018-06-02T08:53:39.730Z,29.99
2018-06-02T08:56:07.959Z,27.94
2018-06-02T08:58:36.943Z,26.67
2018-06-02T09:01:05.215Z,25.54
2018-06-02T09:03:33.439Z,23.86
2018-06-02T09:06:01.667Z,23.32
2018-06-02T09:08:29.923Z,22.56
2018-06-02T09:10:58.144Z,22.85
2018-06-02T09:13:26.359Z,23.00
2018-06-02T09:15:54.607Z,23.31
2018-06-02T09:18:22.832Z,23.27
2018-06-02T09:20:51.056Z,23.61
2018-06-02T09:23:19.307Z,24.04
2018-06-02T09:25:47.528Z,24.14
2018-06-02T09:28:15.742Z,23.30
2018-06-02T09:30:44.007Z,23.62
2018-06-02T09:33:12.223Z,23.99
2018-06-02T09:35:40.440Z,24.50
2018-06-02T09:38:08.667Z,24.58
2018-06-02T09:40:37.670Z,24.71
2018-06-02T09:43:06.024Z,25.01
2018-06-02T09:45:34.263Z,25.45
2018-06-02T09:48:02.479Z,25.72
2018-06-02T09:50:30.720Z,25.56
2018-06-02T09:52:58.952Z,26.19
2018-06-02T09:55:27.208Z,26.03
2018-06-02T09:57:56.198Z,25.75
2018-06-02T10:00:26.063Z,26.09
2018-06-02T10:02:54.351Z,26.07
2018-06-02T10:05:22.564Z,27.26
2018-06-02T10:07:50.792Z,27.00
2018-06-02T10:10:19.075Z,26.23
2018-06-02T10:12:47.295Z,26.25
2018-06-02T10:15:15.518Z,26.54
2018-06-02T10:17:43.791Z,27.02
2018-06-02T10:20:12.015Z,26.95
2018-06-02T10:22:40.242Z,27.08
2018-06-02T10:25:08.483Z,26.04
2018-06-02T10:27:36.699Z,25.87
2018-06-02T10:30:04.920Z,25.92
2018-06-02T10:32:33.163Z,26.62
2018-06-02T10:35:01.394Z,26.46
2018-06-02T10:37:29.624Z,26.85
2018-06-02T10:39:57.847Z,27.22
2018-06-02T10:42:26.838Z,27.40
2018-06-02T10:44:55.071Z,27.66
2018-06-02T10:47:23.299Z,28.06
2018-06-02T10:49:52.331Z,29.73
2018-06-02T10:52:20.543Z,32.79
2018-06-02T10:54:48.764Z,37.33
2018-06-02T10:57:17.020Z,37.92
2018-06-02T10:59:45.246Z,40.03
2018-06-02T11:02:13.451Z,41.22
2018-06-02T11:04:41.707Z,41.29
2018-06-02T11:07:09.923Z,38.89
2018-06-02T11:09:38.152Z,40.59
2018-06-02T11:12:06.403Z,42.03
2018-06-02T11:14:34.644Z,40.79
2018-06-02T11:17:02.864Z,40.28
2018-06-02T11:19:31.142Z,40.39
2018-06-02T11:21:59.361Z,37.56
2018-06-02T11:24:28.348Z,39.37
2018-06-02T11:26:56.603Z,41.45
2018-06-02T11:29:24.830Z,39.30
2018-06-02T11:31:53.047Z,32.25
2018-06-02T11:34:21.303Z,30.59
2018-06-02T11:36:49.517Z,28.95
2018-06-02T11:39:17.735Z,26.89
2018-06-02T11:41:45.975Z,26.67
2018-06-02T11:44:14.198Z,26.79
2018-06-02T11:46:42.407Z,30.70
2018-06-02T11:49:10.667Z,33.86
2018-06-02T11:51:38.898Z,32.59
2018-06-02T11:54:07.885Z,32.18
2018-06-02T11:56:36.147Z,33.72
2018-06-02T11:59:04.363Z,34.56
2018-06-02T12:01:32.578Z,35.98
2018-06-02T12:04:00.835Z,34.16
2018-06-02T12:06:29.052Z,28.48
2018-06-02T12:08:57.271Z,30.08
2018-06-02T12:11:25.511Z,33.01
2018-06-02T12:13:54.489Z,37.80
2018-06-02T12:16:22.699Z,39.14
2018-06-02T12:18:50.963Z,39.21
2018-06-02T12:21:19.944Z,36.49
2018-06-02T12:23:48.162Z,37.22
2018-06-02T12:26:16.407Z,35.35
2018-06-02T12:28:45.400Z,37.66
2018-06-02T12:31:14.519Z,37.87
2018-06-02T12:33:42.770Z,37.97
2018-06-02T12:36:10.998Z,35.23
2018-06-02T12:38:39.219Z,34.92
2018-06-02T12:41:08.214Z,36.41
2018-06-02T12:43:36.439Z,36.24
2018-06-02T12:46:04.695Z,35.49
2018-06-02T12:48:32.923Z,35.96
2018-06-02T12:51:01.152Z,38.12
2018-06-02T12:53:29.394Z,39.49
2018-06-02T12:55:57.611Z,39.78
2018-06-02T12:58:25.828Z,35.63
2018-06-02T13:00:54.087Z,35.48
2018-06-02T13:03:22.302Z,35.03
2018-06-02T13:05:50.540Z,36.11
2018-06-02T13:08:18.810Z,34.82
2018-06-02T13:10:47.028Z,35.45
2018-06-02T13:13:16.015Z,36.19
2018-06-02T13:15:44.266Z,36.74
2018-06-02T13:18:12.490Z,37.19
2018-06-02T13:20:40.728Z,39.53
2018-06-02T13:23:08.983Z,38.98
2018-06-02T13:25:37.210Z,37.43
2018-06-02T13:28:05.439Z,38.98
2018-06-02T13:30:33.710Z,36.45
2018-06-02T13:33:01.955Z,39.09
2018-06-02T13:35:30.223Z,35.93
2018-06-02T13:37:58.516Z,34.93
2018-06-02T13:40:26.764Z,34.75
2018-06-02T13:42:55.764Z,37.14
2018-06-02T13:45:24.068Z,38.24
2018-06-02T13:47:52.296Z,36.27
2018-06-02T13:50:20.549Z,33.39
2018-06-02T13:52:48.819Z,36.54
2018-06-02T13:55:17.035Z,38.27
2018-06-02T13:57:45.330Z,38.38
2018-06-02T14:00:14.364Z,38.29
2018-06-02T14:02:42.582Z,33.78
2018-06-02T14:05:10.883Z,34.35
2018-06-02T14:07:39.140Z,33.03
2018-06-02T14:10:07.441Z,32.77
2018-06-02T14:12:35.828Z,33.03
2018-06-02T14:15:04.083Z,33.62
2018-06-02T14:17:32.270Z,30.90
2018-06-02T14:20:00.515Z,31.14
2018-06-02T14:22:28.731Z,33.32
2018-06-02T14:24:56.993Z,35.39
2018-06-02T14:27:25.217Z,34.14
2018-06-02T14:29:53.440Z,33.48
2018-06-02T14:32:21.674Z,34.13
2018-06-02T14:34:49.902Z,31.83
2018-06-02T14:37:18.128Z,34.46
2018-06-02T14:39:46.355Z,34.75
2018-06-02T14:42:14.579Z,34.18
2018-06-02T14:44:42.799Z,34.83
2018-06-02T14:47:11.059Z,34.44
2018-06-02T14:49:40.047Z,31.50
2018-06-02T14:52:08.272Z,34.69
2018-06-02T14:54:36.539Z,34.45
2018-06-02T14:57:04.759Z,33.53
2018-06-02T14:59:32.982Z,33.44
2018-06-02T15:02:01.215Z,34.77
2018-06-02T15:04:29.432Z,35.48
2018-06-02T15:06:57.664Z,36.11
2018-06-02T15:09:25.890Z,35.09
2018-06-02T15:11:54.118Z,31.20
2018-06-02T15:14:22.403Z,30.99
2018-06-02T15:16:50.737Z,31.66
2018-06-02T15:19:19.012Z,31.66
2018-06-02T15:21:47.428Z,32.37
2018-06-02T15:24:15.718Z,33.52
2018-06-02T15:26:44.159Z,30.45
2018-06-02T15:29:12.485Z,28.45
2018-06-02T15:31:40.859Z,27.49
2018-06-02T15:34:09.123Z,28.50
2018-06-02T15:36:37.388Z,28.38
2018-06-02T15:39:05.567Z,27.20
2018-06-02T15:41:33.819Z,27.20
2018-06-02T15:44:02.041Z,27.54
2018-06-02T15:46:31.026Z,28.54
2018-06-02T15:48:59.275Z,30.06
2018-06-02T15:51:27.498Z,30.35
2018-06-02T15:53:55.857Z,30.46
2018-06-02T15:56:24.123Z,31.07
2018-06-02T15:58:52.338Z,31.29
2018-06-02T16:01:20.691Z,30.43
2018-06-02T16:03:48.944Z,29.59
2018-06-02T16:06:17.162Z,30.25
2018-06-02T16:08:45.379Z,30.55
2018-06-02T16:11:13.635Z,30.72
2018-06-02T16:13:41.855Z,30.30
2018-06-02T16:16:10.075Z,30.91
2018-06-02T16:18:38.331Z,29.97
2018-06-02T16:21:06.551Z,30.55
2018-06-02T16:23:34.787Z,30.57
2018-06-02T16:26:03.055Z,29.96
2018-06-02T16:28:31.275Z,29.53
2018-06-02T16:30:59.495Z,30.08
2018-06-02T16:33:28.512Z,30.45
2018-06-02T16:35:56.739Z,30.01
2018-06-02T16:38:24.963Z,28.84
2018-06-02T16:40:53.216Z,27.96
2018-06-02T16:43:22.194Z,27.67
2018-06-02T16:45:50.520Z,28.45
2018-06-02T16:48:18.799Z,28.80
2018-06-02T16:50:47.019Z,29.47
2018-06-02T16:53:15.246Z,29.01
2018-06-02T16:55:43.479Z,29.62
2018-06-02T16:58:11.709Z,29.13
2018-06-02T17:00:39.922Z,29.39
2018-06-02T17:03:08.499Z,29.41
2018-06-02T17:05:36.721Z,29.74
2018-06-02T17:08:05.063Z,29.05
2018-06-02T17:10:33.351Z,28.24
2018-06-02T17:13:02.339Z,28.08
2018-06-02T17:15:30.580Z,26.50
2018-06-02T17:17:58.871Z,25.92
2018-06-02T17:20:27.096Z,25.93
2018-06-02T17:22:55.314Z,25.48
2018-06-02T17:25:23.559Z,25.24
2018-06-02T17:27:51.779Z,25.02
2018-06-02T17:30:19.995Z,25.02
2018-06-02T17:32:48.999Z,24.98
2018-06-02T17:35:17.224Z,24.60
2018-06-02T17:37:45.450Z,24.38
2018-06-02T17:40:13.708Z,24.38
2018-06-02T17:42:42.707Z,24.34
2018-06-02T17:45:10.927Z,24.30
2018-06-02T17:47:39.179Z,24.12
2018-06-02T17:50:07.400Z,24.09
2018-06-02T17:52:35.707Z,24.17
2018-06-02T17:55:04.723Z,24.16
2018-06-02T17:57:32.948Z,24.27
2018-06-02T18:00:01.173Z,24.19
2018-06-02T18:02:29.444Z,24.49
2018-06-02T18:04:57.674Z,24.90
2018-06-02T18:07:25.892Z,24.78
2018-06-02T18:09:54.129Z,24.99
2018-06-02T18:12:22.342Z,25.17
2018-06-02T18:14:50.631Z,24.94
2018-06-02T18:17:18.851Z,24.35
2018-06-02T18:19:47.067Z,23.99
2018-06-02T18:22:15.309Z,24.08
2018-06-02T18:24:43.527Z,24.13
2018-06-02T18:27:11.880Z,24.23
2018-06-02T18:29:40.291Z,24.16
2018-06-02T18:32:08.523Z,24.14
2018-06-02T18:34:36.744Z,24.41
2018-06-02T18:37:04.996Z,24.39
2018-06-02T18:39:33.203Z,24.20
2018-06-02T18:42:01.415Z,24.23
2018-06-02T18:44:29.664Z,23.97
2018-06-02T18:46:57.883Z,23.90
2018-06-02T18:49:26.103Z,23.67
2018-06-02T18:51:54.359Z,23.57
2018-06-02T18:54:23.342Z,23.35
2018-06-02T18:56:51.563Z,23.27
2018-06-02T18:59:19.816Z,23.17
2018-06-02T19:01:48.035Z,23.05
2018-06-02T19:04:16.255Z,23.02
2018-06-02T19:06:45.276Z,23.05
2018-06-02T19:09:13.507Z,23.02
2018-06-02T19:11:41.732Z,23.05
2018-06-02T19:14:10.009Z,22.97
2018-06-02T19:16:38.216Z,22.96
2018-06-02T19:19:06.435Z,22.83
2018-06-02T19:21:34.703Z,22.73
2018-06-02T19:24:03.686Z,22.56
2018-06-02T19:26:32.677Z,22.48
2018-06-02T19:29:00.931Z,22.34
2018-06-02T19:31:29.155Z,22.22
2018-06-02T19:33:57.378Z,21.99
2018-06-02T19:36:25.604Z,21.80
2018-06-02T19:38:53.819Z,21.62
2018-06-02T19:41:22.047Z,21.48
2018-06-02T19:43:51.075Z,21.37
2018-06-02T19:46:19.302Z,21.27
2018-06-02T19:48:47.525Z,21.23
2018-06-02T19:51:15.774Z,21.17
2018-06-02T19:53:44.035Z,21.16
2018-06-02T19:56:13.027Z,21.12
2018-06-02T19:58:41.287Z,21.05
2018-06-02T20:01:09.499Z,20.91
2018-06-02T20:03:37.720Z,20.75
2018-06-02T20:06:05.980Z,20.60
2018-06-02T20:08:34.208Z,20.49
2018-06-02T20:11:02.434Z,20.45
2018-06-02T20:13:30.711Z,20.40
2018-06-02T20:15:58.944Z,20.35
2018-06-02T20:18:27.926Z,20.40
2018-06-02T20:20:56.206Z,20.43
2018-06-02T20:23:24.420Z,20.44
2018-06-02T20:25:52.652Z,20.42
2018-06-02T20:28:20.907Z,20.37
2018-06-02T20:30:49.143Z,20.34
2018-06-02T20:33:17.358Z,20.22
2018-06-02T20:35:45.622Z,20.13
2018-06-02T20:38:13.943Z,20.09
2018-06-02T20:40:42.235Z,19.97
2018-06-02T20:43:10.530Z,19.92
2018-06-02T20:45:38.747Z,19.82
2018-06-02T20:48:06.974Z,19.75
2018-06-02T20:50:35.220Z,19.69
2018-06-02T20:53:04.213Z,19.67
2018-06-02T20:55:32.439Z,19.66
2018-06-02T20:58:00.683Z,19.66
2018-06-02T21:00:28.913Z,19.70
2018-06-02T21:02:57.130Z,19.70
2018-06-02T21:05:25.391Z,19.79
2018-06-02T21:07:53.661Z,19.86
2018-06-02T21:10:21.844Z,19.95
2018-06-02T21:12:50.862Z,19.95
2018-06-02T21:15:19.135Z,19.90
2018-06-02T21:17:47.364Z,19.88
2018-06-02T21:20:15.595Z,19.81
2018-06-02T21:22:43.847Z,19.74
2018-06-02T21:25:12.087Z,19.63
2018-06-02T21:27:40.311Z,19.54
2018-06-02T21:30:08.547Z,19.44
2018-06-02T21:32:36.836Z,19.32
2018-06-02T21:35:05.128Z,19.21
2018-06-02T21:37:33.407Z,19.13
2018-06-02T21:40:01.652Z,19.21
2018-06-02T21:42:29.878Z,19.20
2018-06-02T21:44:58.102Z,19.05
2018-06-02T21:47:26.353Z,18.67
2018-06-02T21:49:54.575Z,18.52
2018-06-02T21:52:22.852Z,18.37
2018-06-02T21:54:51.063Z,18.21
2018-06-02T21:57:19.283Z,18.12
2018-06-02T21:59:47.547Z,18.00
2018-06-02T22:02:15.822Z,18.04
2018-06-02T22:04:44.044Z,18.01
2018-06-02T22:07:12.284Z,17.89
2018-06-02T22:09:40.504Z,17.87
2018-06-02T22:12:09.494Z,17.94
2018-06-02T22:14:37.791Z,17.80
2018-06-02T22:17:06.014Z,17.73
2018-06-02T22:19:34.239Z,17.67
2018-06-02T22:22:02.491Z,17.58
2018-06-02T22:24:31.484Z,17.44
2018-06-02T22:26:59.707Z,17.50
2018-06-02T22:29:27.965Z,17.68
2018-06-02T22:31:56.186Z,17.56
2018-06-02T22:34:24.411Z,17.28
2018-06-02T22:36:52.655Z,17.30
2018-06-02T22:39:20.888Z,17.29
2018-06-02T22:41:49.111Z,17.27
2018-06-02T22:44:18.130Z,17.20
2018-06-02T22:46:46.359Z,16.99
2018-06-02T22:49:14.746Z,16.85
2018-06-02T22:51:58.506Z,16.86
2018-06-02T22:54:26.739Z,16.92
2018-06-02T22:56:54.988Z,16.97
2018-06-02T22:59:23.222Z,16.94
2018-06-02T23:01:52.214Z,16.74
2018-06-02T23:04:20.482Z,16.67
2018-06-02T23:06:48.716Z,16.61
2018-06-02T23:09:16.942Z,16.67
2018-06-02T23:11:45.219Z,16.65
2018-06-02T23:14:13.447Z,16.51
2018-06-02T23:16:41.747Z,16.39
2018-06-02T23:19:09.971Z,16.44
2018-06-02T23:21:38.199Z,16.29
2018-06-02T23:24:06.465Z,16.18
2018-06-02T23:26:34.699Z,16.12
2018-06-02T23:29:03.693Z,16.12
2018-06-02T23:31:31.921Z,16.16
2018-06-02T23:34:00.147Z,16.22
2018-06-02T23:36:28.412Z,16.05
2018-06-02T23:38:57.395Z,15.96
2018-06-02T23:41:25.627Z,16.00
2018-06-02T23:43:53.883Z,15.87
2018-06-02T23:46:22.639Z,15.81
2018-06-02T23:48:51.479Z,15.88
2018-06-02T23:51:19.879Z,15.90
2018-06-02T23:53:48.187Z,15.96
2018-06-02T23:56:16.595Z,15.96
2018-06-02T23:58:45.057Z,15.91
